createdAt,value
2022-08-24T00:01:51.420Z,6.75
2022-08-24T00:06:55.366Z,6.90
2022-08-24T00:11:57.951Z,6.35
2022-08-24T00:17:03.827Z,6.03
2022-08-24T00:22:26.725Z,7.20
2022-08-24T00:27:29.539Z,7.85
2022-08-24T00:32:33.805Z,7.68
2022-08-24T00:37:41.093Z,6.63
2022-08-24T00:42:43.819Z,7.50
2022-08-24T00:48:04.282Z,7.35
2022-08-24T00:53:49.206Z,6.93
2022-08-24T00:58:58.518Z,7.88
2022-08-24T01:04:05.576Z,6.55
2022-08-24T01:09:08.938Z,7.22
2022-08-24T01:14:19.100Z,7.68
2022-08-24T01:20:06.051Z,6.43
2022-08-24T01:25:34.826Z,5.43
2022-08-24T01:30:39.119Z,7.00
2022-08-24T01:35:41.780Z,7.03
2022-08-24T01:40:51.028Z,6.72
2022-08-24T01:46:01.068Z,7.10
2022-08-24T01:51:05.457Z,6.90
2022-08-24T01:56:15.812Z,7.40
2022-08-24T02:01:20.518Z,7.53
2022-08-24T02:06:23.715Z,6.95
2022-08-24T02:11:28.285Z,8.18
2022-08-24T02:16:31.490Z,7.75
2022-08-24T02:21:40.493Z,8.00
2022-08-24T02:26:46.555Z,6.93
2022-08-24T02:31:49.255Z,7.53
2022-08-24T02:36:56.062Z,8.63
2022-08-24T02:42:21.459Z,8.60
2022-08-24T02:47:38.328Z,8.25
2022-08-24T02:52:50.029Z,7.93
2022-08-24T02:57:54.041Z,9.20
2022-08-24T03:03:11.004Z,9.20
2022-08-24T03:08:30.669Z,9.15
2022-08-24T03:13:44.872Z,8.82
2022-08-24T03:18:52.552Z,9.20
2022-08-24T03:24:02.567Z,9.70
2022-08-24T03:29:21.511Z,9.70
2022-08-24T03:34:56.851Z,10.00
2022-08-24T03:40:22.214Z,10.70
2022-08-24T03:45:33.321Z,9.57
2022-08-24T03:50:44.529Z,9.20
2022-08-24T03:55:50.975Z,10.52
2022-08-24T04:01:01.399Z,9.77
2022-08-24T04:06:08.133Z,10.93
2022-08-24T04:11:18.641Z,10.45
2022-08-24T04:16:21.647Z,10.75
2022-08-24T04:21:35.404Z,10.10
2022-08-24T04:26:45.429Z,10.23
2022-08-24T04:31:53.929Z,11.65
2022-08-24T04:37:12.624Z,12.35
2022-08-24T04:42:29.469Z,10.88
2022-08-24T04:47:38.759Z,11.40
2022-08-24T04:52:45.771Z,11.23
2022-08-24T04:58:36.137Z,11.20
2022-08-24T05:03:54.656Z,9.05
2022-08-24T05:09:07.215Z,11.50
2022-08-24T05:14:14.135Z,9.45
2022-08-24T05:19:26.424Z,10.35
2022-08-24T05:25:06.667Z,10.68
2022-08-24T05:30:51.121Z,10.70
2022-08-24T05:36:00.632Z,10.23
2022-08-24T05:41:19.895Z,10.95
2022-08-24T05:51:57.082Z,10.25
2022-08-24T05:57:07.392Z,8.95
2022-08-24T06:02:21.233Z,9.60
2022-08-24T06:07:31.506Z,12.15
2022-08-24T06:12:38.925Z,12.35
2022-08-24T06:18:19.325Z,11.68
2022-08-24T06:23:34.199Z,11.23
2022-08-24T06:28:45.450Z,11.60
2022-08-24T06:33:54.611Z,10.82
2022-08-24T06:39:03.162Z,11.48
2022-08-24T06:44:18.862Z,9.82
2022-08-24T06:49:38.637Z,13.18
2022-08-24T06:54:53.632Z,13.15
2022-08-24T06:59:58.624Z,12.90
2022-08-24T07:10:46.897Z,12.68
2022-08-24T07:15:56.442Z,12.45
2022-08-24T07:21:07.564Z,12.38
2022-08-24T07:26:53.027Z,11.38
2022-08-24T07:32:03.001Z,11.93
2022-08-24T07:37:41.478Z,9.13
2022-08-24T07:43:08.446Z,8.87
2022-08-24T07:48:14.512Z,9.55
2022-08-24T07:53:32.318Z,9.25
2022-08-24T07:58:41.584Z,8.35
2022-08-24T08:03:45.177Z,8.88
2022-08-24T08:09:00.418Z,10.15
2022-08-24T08:14:15.201Z,9.38
2022-08-24T08:19:19.740Z,8.70
2022-08-24T08:24:24.162Z,7.70
2022-08-24T08:29:33.778Z,7.80
2022-08-24T08:34:38.633Z,8.45
2022-08-24T08:40:15.663Z,8.95
2022-08-24T08:46:13.561Z,8.52
2022-08-24T08:52:11.679Z,8.73
2022-08-24T08:57:45.536Z,8.85
2022-08-24T09:03:50.076Z,8.65
2022-08-24T09:09:45.979Z,9.27
2022-08-24T09:15:45.250Z,9.95
2022-08-24T09:20:59.640Z,10.10
2022-08-24T09:26:09.701Z,10.70
2022-08-24T09:31:27.905Z,11.35
2022-08-24T09:36:40.177Z,10.15
2022-08-24T09:42:06.120Z,9.68
2022-08-24T09:47:17.655Z,9.75
2022-08-24T09:52:48.762Z,10.45
2022-08-24T10:04:26.344Z,9.40
2022-08-24T10:09:59.713Z,9.45
2022-08-24T10:15:07.617Z,8.88
2022-08-24T10:20:24.077Z,8.30
2022-08-24T10:25:41.752Z,9.18
2022-08-24T10:31:02.830Z,8.23
2022-08-24T10:36:08.384Z,8.90
2022-08-24T10:41:38.802Z,8.70
2022-08-24T10:46:50.049Z,9.40
2022-08-24T10:52:13.949Z,7.93
2022-08-24T10:57:28.646Z,8.18
2022-08-24T11:02:37.883Z,8.45
2022-08-24T11:08:05.404Z,7.45
2022-08-24T11:13:27.505Z,8.35
2022-08-24T11:18:52.671Z,7.95
2022-08-24T11:24:02.293Z,8.38
2022-08-24T11:29:05.328Z,7.72
2022-08-24T11:34:15.979Z,7.63
2022-08-24T11:39:30.746Z,7.60
2022-08-24T11:44:58.233Z,7.57
2022-08-24T11:50:06.644Z,7.72
2022-08-24T11:55:18.847Z,8.20
2022-08-24T12:00:34.812Z,8.38
2022-08-24T12:05:37.606Z,7.70
2022-08-24T12:11:04.518Z,7.55
2022-08-24T12:16:39.987Z,8.05
2022-08-24T12:22:06.497Z,8.63
2022-08-24T12:27:13.390Z,7.80
2022-08-24T12:32:25.344Z,8.18
2022-08-24T12:38:15.772Z,7.28
2022-08-24T12:43:25.828Z,7.68
2022-08-24T12:48:39.905Z,7.75
2022-08-24T12:54:27.064Z,7.15
2022-08-24T12:59:50.292Z,7.05
2022-08-24T13:05:02.410Z,7.20
2022-08-24T13:10:27.987Z,7.07
2022-08-24T13:15:30.896Z,7.20
2022-08-24T13:20:36.387Z,7.43
2022-08-24T13:25:48.304Z,9.50
2022-08-24T13:31:03.643Z,7.68
2022-08-24T13:37:06.233Z,10.57
2022-08-24T13:42:35.605Z,11.85
2022-08-24T13:48:12.851Z,7.90
2022-08-24T13:53:44.432Z,6.50
2022-08-24T13:59:24.460Z,13.27
2022-08-24T14:04:26.924Z,14.40
2022-08-24T14:09:58.559Z,14.50
2022-08-24T14:15:23.671Z,11.77
2022-08-24T14:20:51.143Z,8.15
2022-08-24T14:26:43.780Z,7.25
2022-08-24T14:32:00.035Z,6.70
2022-08-24T14:37:21.526Z,7.85
2022-08-24T14:42:46.605Z,6.82
2022-08-24T14:48:15.288Z,8.18
2022-08-24T14:53:30.437Z,7.10
2022-08-24T14:58:48.383Z,7.95
2022-08-24T15:04:37.175Z,6.15
2022-08-24T15:09:42.880Z,7.47
2022-08-24T15:14:53.484Z,6.75
2022-08-24T15:20:04.568Z,6.40
2022-08-24T15:25:37.149Z,6.43
2022-08-24T15:30:41.964Z,5.47
2022-08-24T15:35:50.537Z,5.78
2022-08-24T15:41:17.694Z,5.78
2022-08-24T15:46:23.398Z,5.25
2022-08-24T15:51:45.075Z,5.22
2022-08-24T15:56:49.261Z,5.95
2022-08-24T16:02:31.181Z,5.88
2022-08-24T16:08:04.638Z,6.40
2022-08-24T16:13:20.004Z,5.53
2022-08-24T16:18:27.227Z,5.93
2022-08-24T16:23:34.777Z,5.78
2022-08-24T16:28:37.635Z,5.40
2022-08-24T16:33:45.004Z,5.35
2022-08-24T16:38:50.627Z,5.15
2022-08-24T16:43:53.427Z,5.82
2022-08-24T16:48:55.947Z,5.95
2022-08-24T16:54:00.592Z,6.00
2022-08-24T16:59:07.073Z,7.43
2022-08-24T17:04:09.585Z,7.25
2022-08-24T17:09:12.281Z,8.02
2022-08-24T17:14:15.822Z,6.95
2022-08-24T17:19:20.807Z,7.07
2022-08-24T17:24:43.478Z,5.75
2022-08-24T17:29:47.503Z,7.15
2022-08-24T17:34:50.303Z,7.57
2022-08-24T17:39:58.118Z,7.15
2022-08-24T17:45:02.328Z,7.38
2022-08-24T17:50:07.900Z,7.38
2022-08-24T17:55:14.519Z,7.40
2022-08-24T18:00:20.211Z,7.93
2022-08-24T18:05:23.547Z,8.52
2022-08-24T18:10:29.028Z,8.98
2022-08-24T18:15:35.499Z,9.30
2022-08-24T18:20:40.942Z,9.95
2022-08-24T18:25:48.267Z,10.80
2022-08-24T18:30:53.773Z,10.48
2022-08-24T18:35:58.153Z,11.30
2022-08-24T18:41:02.058Z,10.93
2022-08-24T18:46:05.699Z,11.82
2022-08-24T18:51:15.064Z,12.57
2022-08-24T18:56:21.450Z,11.82
2022-08-24T19:01:24.801Z,12.20
2022-08-24T19:06:27.543Z,15.13
2022-08-24T19:11:32.455Z,14.18
2022-08-24T19:16:37.061Z,12.02
2022-08-24T19:22:01.619Z,12.38
2022-08-24T19:33:20.445Z,11.70
2022-08-24T19:38:43.038Z,12.85
2022-08-24T19:44:47.367Z,13.45
2022-08-24T19:49:55.288Z,14.55
2022-08-24T19:54:58.765Z,14.27
2022-08-24T20:00:19.099Z,15.02
2022-08-24T20:05:22.974Z,14.68
2022-08-24T20:10:25.765Z,17.13
2022-08-24T20:20:32.191Z,13.38
2022-08-24T20:25:36.122Z,13.90
2022-08-24T20:30:43.066Z,13.50
2022-08-24T20:35:45.566Z,13.85
2022-08-24T20:40:49.574Z,13.68
2022-08-24T20:45:52.952Z,13.00
2022-08-24T20:50:56.977Z,13.57
2022-08-24T20:56:04.698Z,12.93
2022-08-24T21:01:12.616Z,14.15
2022-08-24T21:06:19.662Z,13.15
2022-08-24T21:11:24.761Z,12.57
2022-08-24T21:16:27.364Z,13.90
2022-08-24T21:21:30.569Z,13.38
2022-08-24T21:26:36.076Z,14.63
2022-08-24T21:31:43.178Z,13.45
2022-08-24T21:36:52.553Z,12.98
2022-08-24T21:41:57.663Z,13.70
2022-08-24T21:47:01.634Z,13.40
2022-08-24T21:52:05.025Z,12.55
2022-08-24T21:57:07.621Z,12.55
2022-08-24T22:02:13.483Z,12.57
2022-08-24T22:07:20.593Z,12.95
2022-08-24T22:12:22.939Z,12.85
2022-08-24T22:17:26.782Z,14.35
2022-08-24T22:22:30.500Z,13.75
2022-08-24T22:27:33.696Z,13.05
2022-08-24T22:32:36.125Z,13.57
2022-08-24T22:37:42.109Z,13.77
2022-08-24T22:42:46.024Z,14.00
2022-08-24T22:53:13.931Z,14.20
2022-08-24T22:58:16.183Z,14.60
2022-08-24T23:03:19.251Z,14.07
2022-08-24T23:08:21.528Z,13.95
2022-08-24T23:13:28.136Z,14.70
2022-08-24T23:18:49.758Z,15.48
2022-08-24T23:23:52.039Z,14.45
2022-08-24T23:28:54.480Z,14.30
2022-08-24T23:34:11.747Z,14.25
2022-08-24T23:39:15.789Z,13.00
2022-08-24T23:44:27.232Z,13.57
2022-08-24T23:49:31.814Z,12.20
2022-08-24T23:54:35.282Z,13.38
2022-08-24T23:59:38.764Z,13.85
